Time;durP1;ratioP1;P1;durP2;ratioP2;P2;SDS_P1;SDS_P2;PMS_P1;PMS_P2;Temp;Humidity;BMP_temperature;BMP_pressure;BME280_temperature;BME280_humidity;BME280_pressure;Samples;Min_cycle;Max_cycle;Signal;HPM_P1;HPM_P2
2021/08/22 14:38:19;;;;;;;4.35;1.20;;;25.20;55.30;;;;;;6213594;22;1496020;-76
2021/08/22 14:40:46;;;;;;;4.28;1.40;;;25.20;55.90;;;;;;6248885;23;20050;-75
2021/08/22 14:43:11;;;;;;;5.63;1.60;;;25.10;56.40;;;;;;6224019;23;20001;-75
2021/08/22 14:45:37;;;;;;;5.25;1.50;;;25.10;55.90;;;;;;6224893;23;20504;-71
2021/08/22 14:48:03;;;;;;;3.28;1.25;;;25.10;55.90;;;;;;6250199;23;20035;-74
2021/08/22 14:50:29;;;;;;;3.83;1.40;;;25.00;56.40;;;;;;6250069;23;20075;-73
2021/08/22 14:52:55;;;;;;;5.50;1.48;;;25.00;56.90;;;;;;6223337;23;20000;-73
2021/08/22 14:55:21;;;;;;;4.32;1.23;;;24.90;56.50;;;;;;6251435;23;20027;-73
2021/08/22 14:57:47;;;;;;;4.28;1.27;;;24.80;55.90;;;;;;6251144;23;20083;-73
2021/08/22 15:00:14;;;;;;;5.07;1.45;;;24.80;55.80;;;;;;6251782;23;20050;-73
2021/08/22 15:02:40;;;;;;;13.80;9.45;;;24.70;55.90;;;;;;6251391;23;20023;-74
2021/08/22 15:05:09;;;;;;;10.18;6.10;;;24.60;56.40;;;;;;6251495;23;19999;-74
2021/08/22 15:07:36;;;;;;;5.20;1.90;;;24.60;56.30;;;;;;6250860;23;20000;-73
2021/08/22 15:10:02;;;;;;;44.78;12.10;;;24.50;55.30;;;;;;6251303;23;20031;-72
2021/08/22 15:12:28;;;;;;;38.35;11.35;;;24.40;56.00;;;;;;6251159;23;20386;-76
2021/08/22 15:14:54;;;;;;;66.68;17.52;;;24.30;55.80;;;;;;6224448;23;20004;-76
2021/08/22 15:17:20;;;;;;;78.97;21.70;;;24.20;56.60;;;;;;6224224;23;20006;-75
2021/08/22 15:19:46;;;;;;;31.52;10.00;;;24.10;57.30;;;;;;6223674;23;20462;-76
2021/08/22 15:22:13;;;;;;;32.67;9.23;;;23.90;57.10;;;;;;6224557;23;20039;-76
2021/08/22 15:24:39;;;;;;;21.38;6.68;;;23.90;57.00;;;;;;6250884;23;20008;-76
2021/08/22 15:27:06;;;;;;;28.52;7.60;;;23.80;56.60;;;;;;6251115;23;20004;-76
2021/08/22 15:29:33;;;;;;;29.02;8.32;;;23.70;57.50;;;;;;6251334;23;20000;-74
2021/08/22 15:32:01;;;;;;;23.55;6.43;;;23.70;57.60;;;;;;6224238;23;20026;-74
2021/08/22 15:34:27;;;;;;;7.57;3.03;;;23.60;57.20;;;;;;6251275;23;20090;-71
2021/08/22 15:36:54;;;;;;;5.88;1.98;;;23.60;57.40;;;;;;6251125;23;20000;-72
2021/08/22 15:39:20;;;;;;;7.13;2.45;;;23.50;57.40;;;;;;6250639;23;20079;-72
2021/08/22 15:41:46;;;;;;;5.28;1.70;;;23.50;57.70;;;;;;6251366;23;20058;-72
2021/08/22 15:44:12;;;;;;;7.75;2.65;;;23.40;57.80;;;;;;6251045;23;20008;-72
2021/08/22 15:46:38;;;;;;;5.68;1.90;;;23.40;57.60;;;;;;6251156;23;20020;-71
2021/08/22 15:49:04;;;;;;;4.80;1.52;;;23.40;57.50;;;;;;6251110;23;20362;-71
2021/08/22 15:51:32;;;;;;;4.07;1.45;;;23.40;57.80;;;;;;6251256;23;20003;-73
2021/08/22 15:54:01;;;;;;;7.65;1.92;;;23.30;57.60;;;;;;6223891;23;20019;-77
2021/08/22 15:56:28;;;;;;;4.72;1.42;;;23.30;57.20;;;;;;6251169;23;20063;-76
2021/08/22 15:58:53;;;;;;;9.60;4.95;;;23.20;57.20;;;;;;6251082;23;20087;-77
2021/08/22 16:01:20;;;;;;;14.52;6.43;;;23.20;57.30;;;;;;6251188;23;20004;-76
2021/08/22 16:03:45;;;;;;;18.75;12.75;;;23.20;57.40;;;;;;6251202;23;20488;-75
2021/08/22 16:06:11;;;;;;;12.40;6.28;;;23.10;57.60;;;;;;6251298;23;20051;-76
2021/08/22 16:08:37;;;;;;;8.18;4.00;;;23.10;57.60;;;;;;6250583;23;20007;-74
2021/08/22 16:11:03;;;;;;;6.47;2.30;;;23.10;58.20;;;;;;6251253;23;20007;-76
2021/08/22 16:13:29;;;;;;;4.60;1.50;;;23.10;58.10;;;;;;6251061;23;20019;-75
2021/08/22 16:15:56;;;;;;;4.32;1.50;;;23.10;58.40;;;;;;6250981;23;20003;-74
2021/08/22 16:18:21;;;;;;;5.47;2.17;;;23.10;57.80;;;;;;6250958;23;20004;-74
2021/08/22 16:20:47;;;;;;;6.28;2.30;;;23.10;58.60;;;;;;6251189;23;20011;-74
2021/08/22 16:23:13;;;;;;;6.72;1.90;;;23.00;57.60;;;;;;6250770;23;20054;-74
2021/08/22 16:25:39;;;;;;;10.88;2.25;;;23.00;57.10;;;;;;6251189;23;20008;-74
2021/08/22 16:28:05;;;;;;;6.70;1.73;;;22.90;57.30;;;;;;6250828;23;20083;-74
2021/08/22 16:30:31;;;;;;;5.82;1.60;;;22.90;57.60;;;;;;6250626;23;19996;-74
2021/08/22 16:32:58;;;;;;;5.38;1.65;;;22.90;57.70;;;;;;6250921;23;19996;-74
2021/08/22 16:35:24;;;;;;;6.57;1.70;;;22.80;58.00;;;;;;6250949;23;19997;-75
2021/08/22 16:37:50;;;;;;;4.60;1.73;;;22.80;57.70;;;;;;6250495;23;20078;-75
2021/08/22 16:40:16;;;;;;;5.78;1.70;;;22.80;58.00;;;;;;6223876;23;20020;-75
2021/08/22 16:42:42;;;;;;;3.53;1.50;;;22.70;58.20;;;;;;6250777;23;20362;-75
2021/08/22 16:45:09;;;;;;;5.45;1.70;;;22.70;58.60;;;;;;6250558;23;20079;-78
2021/08/22 16:47:35;;;;;;;5.57;1.70;;;22.70;58.40;;;;;;6250502;23;20074;-77
2021/08/22 16:50:01;;;;;;;4.78;1.85;;;22.60;58.00;;;;;;6223709;23;20007;-78
2021/08/22 16:52:27;;;;;;;6.50;2.85;;;22.60;58.20;;;;;;6250682;23;19997;-74
2021/08/22 16:54:54;;;;;;;8.13;5.20;;;22.60;58.50;;;;;;6250694;23;20019;-75
2021/08/22 16:57:20;;;;;;;12.70;6.82;;;22.60;58.70;;;;;;6223706;23;20058;-74
2021/08/22 16:59:46;;;;;;;9.00;4.47;;;22.50;58.50;;;;;;6250748;23;20010;-76
2021/08/22 17:02:12;;;;;;;6.95;3.25;;;22.50;58.40;;;;;;6250823;23;20001;-76
2021/08/22 17:04:39;;;;;;;8.52;3.67;;;22.40;57.80;;;;;;6250668;23;20015;-77
2021/08/22 17:07:05;;;;;;;6.07;3.10;;;22.40;58.30;;;;;;6250731;23;20354;-77
2021/08/22 17:09:35;;;;;;;5.13;2.58;;;22.40;58.40;;;;;;6250345;23;20004;-77
2021/08/22 17:12:02;;;;;;;6.90;2.63;;;22.30;58.60;;;;;;6250808;23;20373;-76
2021/08/22 17:14:28;;;;;;;7.45;2.15;;;22.30;57.60;;;;;;6250786;23;19997;-76
2021/08/22 17:16:54;;;;;;;5.10;1.35;;;22.20;58.10;;;;;;6250864;23;20118;-77
2021/08/22 17:19:20;;;;;;;4.05;1.55;;;22.20;58.40;;;;;;6250931;23;20079;-80
2021/08/22 17:21:46;;;;;;;5.78;1.65;;;22.10;58.60;;;;;;6250730;23;20073;-79
2021/08/22 17:24:12;;;;;;;3.80;1.52;;;22.00;58.60;;;;;;6250269;23;20008;-75
2021/08/22 17:26:38;;;;;;;5.20;1.63;;;22.00;58.90;;;;;;6250521;23;20061;-79
2021/08/22 17:29:03;;;;;;;11.93;6.45;;;22.00;58.90;;;;;;6250414;23;20091;-80
2021/08/22 17:31:29;;;;;;;11.98;8.30;;;21.90;58.60;;;;;;6250039;23;20023;-79
2021/08/22 17:33:56;;;;;;;10.30;5.60;;;21.90;58.90;;;;;;6250555;23;20027;-78
2021/08/22 17:36:22;;;;;;;5.72;2.92;;;21.80;58.80;;;;;;6249834;23;20007;-79
2021/08/22 17:38:48;;;;;;;6.03;2.63;;;21.80;58.90;;;;;;6249935;23;20038;-79
2021/08/22 17:41:13;;;;;;;6.22;2.53;;;21.80;59.20;;;;;;6250644;23;20335;-79
2021/08/22 17:43:39;;;;;;;8.65;2.08;;;21.80;59.30;;;;;;6251478;23;20005;-82
2021/08/22 17:46:05;;;;;;;5.70;1.70;;;21.70;59.30;;;;;;6252148;23;20016;-79
2021/08/22 17:48:31;;;;;;;5.53;1.92;;;21.70;59.30;;;;;;6252090;23;20007;-79
2021/08/22 17:50:57;;;;;;;5.35;1.60;;;21.70;59.40;;;;;;6252449;23;20052;-86
2021/08/22 17:53:23;;;;;;;4.65;1.48;;;21.60;59.50;;;;;;6251943;23;20003;-77
2021/08/22 17:55:48;;;;;;;4.75;1.70;;;21.60;59.50;;;;;;6252313;23;20089;-79
2021/08/22 17:58:14;;;;;;;4.10;1.63;;;21.50;59.70;;;;;;6252259;23;20011;-76
2021/08/22 18:00:40;;;;;;;6.07;1.75;;;21.50;59.70;;;;;;6252303;23;20050;-86
2021/08/22 18:03:06;;;;;;;5.97;1.85;;;21.40;59.70;;;;;;6251850;23;20126;-84
2021/08/22 18:05:34;;;;;;;5.97;2.60;;;21.40;59.90;;;;;;6251489;23;20126;-79
2021/08/22 18:08:06;;;;;;;7.22;2.60;;;21.40;59.80;;;;;;6251552;23;20046;-78
2021/08/22 18:10:33;;;;;;;6.60;2.00;;;21.30;60.00;;;;;;6251933;23;19996;-77
2021/08/22 18:12:59;;;;;;;5.50;2.00;;;21.20;60.00;;;;;;6225052;23;20001;-77
2021/08/22 18:15:25;;;;;;;6.00;2.00;;;21.20;60.10;;;;;;6224249;23;20030;-78
2021/08/22 18:17:51;;;;;;;4.97;1.70;;;21.10;60.00;;;;;;6224979;23;20052;-76
2021/08/22 18:20:17;;;;;;;6.45;1.70;;;21.10;60.20;;;;;;6224735;23;20000;-75
2021/08/22 18:22:43;;;;;;;3.30;1.50;;;21.00;60.00;;;;;;6251602;23;20046;-75
2021/08/22 18:25:10;;;;;;;5.47;1.88;;;21.00;60.10;;;;;;6251798;23;20104;-75
2021/08/22 18:27:39;;;;;;;8.10;2.70;;;20.90;60.10;;;;;;6251822;23;20328;-79
2021/08/22 18:30:06;;;;;;;5.30;2.00;;;20.90;60.30;;;;;;6221001;23;20019;-83
2021/08/22 18:32:35;;;;;;;4.72;1.92;;;20.90;60.30;;;;;;6222710;23;20000;-84
2021/08/22 18:35:01;;;;;;;5.78;2.38;;;20.80;60.30;;;;;;6224217;23;20000;-82
2021/08/22 18:37:30;;;;;;;4.70;1.95;;;20.80;60.60;;;;;;6251490;23;20003;-74
2021/08/22 18:39:56;;;;;;;7.15;2.10;;;20.70;60.50;;;;;;6251515;23;20020;-74
2021/08/22 18:42:22;;;;;;;8.00;2.13;;;20.70;60.50;;;;;;6251550;23;20148;-74
2021/08/22 18:44:48;;;;;;;6.00;2.55;;;20.60;60.60;;;;;;6251417;23;20112;-74
2021/08/22 18:47:15;;;;;;;5.00;2.35;;;20.60;60.80;;;;;;6249295;23;20008;-75
2021/08/22 18:49:41;;;;;;;5.88;2.00;;;20.50;60.70;;;;;;6250975;23;20000;-74
2021/08/22 18:52:07;;;;;;;5.78;2.08;;;20.50;60.80;;;;;;6251761;23;20051;-74
2021/08/22 18:54:33;;;;;;;6.22;2.40;;;20.40;60.90;;;;;;6250992;23;20355;-74
2021/08/22 18:56:59;;;;;;;4.40;1.77;;;20.30;61.10;;;;;;6251464;23;20046;-77
2021/08/22 18:59:26;;;;;;;7.50;2.33;;;20.30;61.00;;;;;;6251225;23;20000;-78
2021/08/22 19:01:52;;;;;;;4.70;1.90;;;20.20;60.90;;;;;;6251373;23;20043;-78
2021/08/22 19:04:18;;;;;;;6.10;2.00;;;20.20;60.90;;;;;;6251066;23;20000;-76
2021/08/22 19:06:44;;;;;;;4.18;1.80;;;20.10;61.10;;;;;;6224410;23;20008;-77
2021/08/22 19:09:10;;;;;;;5.70;2.38;;;20.10;61.00;;;;;;6250812;23;20000;-80
2021/08/22 19:11:36;;;;;;;6.15;1.85;;;20.00;60.80;;;;;;6251184;23;20007;-77
2021/08/22 19:14:02;;;;;;;6.93;1.95;;;20.00;61.00;;;;;;6224309;23;20004;-75
2021/08/22 19:16:28;;;;;;;4.63;1.95;;;19.90;60.90;;;;;;6222852;23;20000;-79
2021/08/22 19:18:53;;;;;;;6.15;1.73;;;19.80;60.70;;;;;;6223460;23;20391;-80
2021/08/22 19:21:19;;;;;;;6.13;2.00;;;19.80;60.70;;;;;;6249282;23;20000;-81
2021/08/22 19:23:46;;;;;;;5.40;1.77;;;19.70;60.70;;;;;;6250800;23;20323;-80
2021/08/22 19:26:16;;;;;;;4.30;2.03;;;19.70;60.80;;;;;;6250699;23;20004;-83
2021/08/22 19:28:42;;;;;;;5.78;1.83;;;19.60;60.90;;;;;;6251146;23;20004;-72
2021/08/22 19:31:08;;;;;;;5.45;2.00;;;19.50;60.90;;;;;;6250224;23;20079;-79
2021/08/22 19:33:34;;;;;;;6.30;1.98;;;19.50;61.00;;;;;;6250808;23;19996;-79
2021/08/22 19:36:01;;;;;;;5.13;2.13;;;19.50;61.10;;;;;;6251448;23;20327;-81
2021/08/22 19:38:28;;;;;;;6.10;2.13;;;19.40;61.20;;;;;;6249752;23;20035;-81
2021/08/22 19:40:54;;;;;;;6.70;2.10;;;19.30;61.30;;;;;;6250166;23;20427;-83
2021/08/22 19:43:21;;;;;;;7.00;2.20;;;19.30;61.20;;;;;;6249932;23;20091;-84
2021/08/22 19:45:47;;;;;;;6.57;2.42;;;19.30;61.30;;;;;;6249801;23;20004;-85
2021/08/22 19:48:13;;;;;;;7.43;2.35;;;19.20;61.30;;;;;;6250383;23;20007;-87
2021/08/22 19:50:40;;;;;;;6.57;2.00;;;19.10;61.60;;;;;;6224426;23;20050;-86
2021/08/22 19:53:06;;;;;;;5.65;1.83;;;19.10;61.80;;;;;;6224008;23;20008;-85
2021/08/22 19:55:31;;;;;;;6.30;2.08;;;19.10;62.00;;;;;;6251314;23;20034;-84
2021/08/22 19:57:57;;;;;;;6.72;2.20;;;19.00;61.90;;;;;;6250981;23;20000;-83
2021/08/22 20:00:23;;;;;;;5.20;2.70;;;19.00;61.80;;;;;;6251225;23;20001;-84
2021/08/22 20:02:49;;;;;;;6.28;2.42;;;18.90;62.00;;;;;;6251039;23;20000;-82
2021/08/22 20:05:16;;;;;;;4.43;2.00;;;18.90;62.00;;;;;;6251192;23;20019;-76
2021/08/22 20:07:46;;;;;;;6.72;2.22;;;18.90;62.20;;;;;;6250487;23;20431;-79
2021/08/22 20:10:13;;;;;;;5.55;2.15;;;18.80;61.90;;;;;;6251072;23;20026;-80
2021/08/22 20:12:39;;;;;;;4.82;1.95;;;18.80;62.30;;;;;;6250911;23;20031;-81
2021/08/22 20:15:06;;;;;;;5.57;1.95;;;18.70;62.30;;;;;;6251063;23;20388;-79
2021/08/22 20:17:32;;;;;;;7.38;2.60;;;18.70;63.40;;;;;;6224059;23;20339;-82
2021/08/22 20:19:58;;;;;;;7.25;2.60;;;18.60;65.60;;;;;;6250984;23;20004;-82
2021/08/22 20:22:23;;;;;;;6.72;2.75;;;18.60;67.40;;;;;;6250762;23;20004;-83
2021/08/22 20:24:50;;;;;;;5.43;1.90;;;18.50;65.30;;;;;;6250865;23;20059;-82
2021/08/22 20:27:17;;;;;;;6.53;1.92;;;18.50;64.20;;;;;;6250864;23;20083;-82
2021/08/22 20:29:43;;;;;;;4.15;2.22;;;18.50;63.70;;;;;;6250695;23;20000;-82
2021/08/22 20:32:12;;;;;;;6.85;2.42;;;18.40;63.30;;;;;;6250906;23;20004;-84
2021/08/22 20:34:41;;;;;;;7.28;2.03;;;18.40;63.40;;;;;;6251008;23;20099;-83
2021/08/22 20:37:07;;;;;;;4.40;1.73;;;18.30;63.20;;;;;;6250866;23;20005;-83
2021/08/22 20:39:35;;;;;;;6.68;1.88;;;18.30;63.20;;;;;;6250383;23;20026;-78
2021/08/22 20:42:02;;;;;;;3.97;1.50;;;18.30;63.10;;;;;;6250614;23;20004;-78
2021/08/22 20:44:28;;;;;;;7.32;1.90;;;18.20;63.00;;;;;;6250912;23;20000;-78
2021/08/22 20:46:54;;;;;;;6.38;2.33;;;18.20;63.10;;;;;;6250422;23;20316;-77
2021/08/22 20:49:20;;;;;;;4.28;1.90;;;18.10;63.10;;;;;;6250658;23;20005;-77
2021/08/22 20:51:46;;;;;;;6.32;1.83;;;18.10;63.10;;;;;;6250637;23;20000;-77
2021/08/22 20:54:12;;;;;;;4.78;2.00;;;18.00;63.10;;;;;;6250528;23;20003;-75
2021/08/22 20:56:38;;;;;;;6.30;2.15;;;18.00;63.20;;;;;;6250674;23;20004;-80
2021/08/22 20:59:04;;;;;;;6.50;1.70;;;17.90;63.00;;;;;;6223940;23;20005;-80
2021/08/22 21:01:29;;;;;;;6.95;2.60;;;17.90;63.00;;;;;;6223523;23;20364;-80
2021/08/22 21:03:55;;;;;;;8.75;2.70;;;17.90;63.20;;;;;;6249919;23;20327;-78
2021/08/22 21:06:21;;;;;;;6.43;2.40;;;17.80;63.20;;;;;;6250267;23;20054;-78
2021/08/22 21:08:47;;;;;;;6.18;1.98;;;17.80;63.30;;;;;;6250286;23;20007;-78
2021/08/22 21:11:13;;;;;;;6.70;2.38;;;17.80;63.40;;;;;;6250788;23;20046;-77
2021/08/22 21:13:39;;;;;;;5.03;2.20;;;17.70;64.00;;;;;;6250661;23;19996;-78
2021/08/22 21:16:05;;;;;;;8.68;2.80;;;17.70;63.70;;;;;;6250726;23;20007;-78
2021/08/22 21:18:31;;;;;;;7.45;2.63;;;17.70;65.60;;;;;;6252111;23;20000;-77
2021/08/22 21:20:56;;;;;;;5.95;2.38;;;17.60;64.70;;;;;;6252746;23;20000;-75
2021/08/22 21:23:22;;;;;;;7.20;2.70;;;17.50;64.20;;;;;;6252345;23;20004;-77
2021/08/22 21:25:48;;;;;;;5.65;2.47;;;17.50;64.10;;;;;;6252634;23;20003;-78
2021/08/22 21:28:14;;;;;;;13.18;5.90;;;17.50;64.10;;;;;;6252441;23;20058;-78
2021/08/22 21:30:40;;;;;;;11.40;5.32;;;17.40;64.10;;;;;;6252709;23;20054;-79
2021/08/22 21:33:06;;;;;;;10.07;5.15;;;17.40;64.00;;;;;;6252759;23;20000;-79
2021/08/22 21:35:32;;;;;;;9.10;4.80;;;17.30;63.90;;;;;;6252698;23;20003;-79
2021/08/22 21:37:58;;;;;;;7.78;3.80;;;17.30;63.80;;;;;;6251927;23;20004;-78
2021/08/22 21:40:26;;;;;;;7.47;3.53;;;17.30;64.20;;;;;;6252654;23;20004;-77
2021/08/22 21:42:52;;;;;;;7.00;3.88;;;17.20;64.90;;;;;;6252729;23;20026;-79
2021/08/22 21:45:17;;;;;;;6.28;2.53;;;17.20;64.40;;;;;;6252658;23;20000;-76
2021/08/22 21:47:43;;;;;;;7.57;3.13;;;17.20;64.70;;;;;;6252339;23;19996;-78
2021/08/22 21:50:10;;;;;;;6.43;3.33;;;17.10;64.40;;;;;;6252344;23;20083;-77
2021/08/22 21:52:38;;;;;;;6.95;2.47;;;17.10;67.30;;;;;;6252205;23;20031;-77
2021/08/22 21:55:06;;;;;;;6.15;2.50;;;17.10;68.50;;;;;;6252524;23;20457;-77
2021/08/22 21:57:33;;;;;;;6.25;2.45;;;17.10;68.00;;;;;;6252615;23;20004;-77
2021/08/22 21:59:59;;;;;;;5.75;2.28;;;17.00;66.60;;;;;;6252581;23;20008;-77
2021/08/22 22:02:26;;;;;;;5.93;2.35;;;17.00;66.00;;;;;;6252531;23;20027;-77
2021/08/22 22:04:51;;;;;;;7.00;2.05;;;16.90;65.50;;;;;;6252657;23;20007;-76
2021/08/22 22:07:17;;;;;;;4.88;2.30;;;16.90;65.20;;;;;;6252080;23;20000;-77
2021/08/22 22:09:43;;;;;;;7.82;2.92;;;16.90;65.10;;;;;;6252127;23;20098;-75
2021/08/22 22:12:09;;;;;;;7.10;2.13;;;16.80;65.00;;;;;;6252391;23;20067;-76
2021/08/22 22:14:35;;;;;;;5.03;2.03;;;16.80;65.60;;;;;;6252337;23;20001;-77
2021/08/22 22:17:01;;;;;;;5.53;1.60;;;16.80;64.90;;;;;;6252079;23;20018;-77
2021/08/22 22:19:26;;;;;;;5.70;1.77;;;16.70;64.80;;;;;;6225172;23;20448;-77
2021/08/22 22:21:52;;;;;;;4.68;2.28;;;16.70;64.80;;;;;;6252264;23;20004;-77
2021/08/22 22:24:18;;;;;;;5.70;1.90;;;16.70;65.00;;;;;;6251860;23;20039;-77
2021/08/22 22:26:45;;;;;;;6.53;2.58;;;16.60;64.90;;;;;;6252096;23;20051;-77
2021/08/22 22:29:11;;;;;;;6.40;2.28;;;16.60;65.60;;;;;;6251445;23;20000;-77
2021/08/22 22:31:37;;;;;;;7.72;2.28;;;16.60;67.20;;;;;;6252087;23;19996;-77
2021/08/22 22:34:03;;;;;;;7.50;2.70;;;16.50;67.60;;;;;;6251842;23;20443;-77
2021/08/22 22:36:29;;;;;;;7.45;2.90;;;16.50;68.20;;;;;;6251969;23;20073;-78
2021/08/22 22:38:55;;;;;;;5.78;2.25;;;16.50;67.80;;;;;;6251542;23;20344;-77
2021/08/22 22:41:21;;;;;;;6.82;2.45;;;16.50;68.80;;;;;;6251955;23;20000;-77
2021/08/22 22:43:47;;;;;;;6.80;2.20;;;16.40;67.30;;;;;;6225044;23;20457;-77
2021/08/22 22:46:13;;;;;;;7.85;3.17;;;16.30;66.70;;;;;;6252032;23;20331;-78
2021/08/22 22:48:41;;;;;;;4.57;2.10;;;16.40;66.40;;;;;;6251805;23;20004;-77
2021/08/22 22:51:18;;;;;;;5.68;2.40;;;16.30;66.20;;;;;;6251986;23;19996;-78
2021/08/22 22:53:44;;;;;;;5.40;2.10;;;16.30;66.10;;;;;;6251624;23;20079;-77
2021/08/22 22:56:10;;;;;;;5.20;1.90;;;16.20;65.90;;;;;;6251815;23;20003;-77
2021/08/22 22:58:36;;;;;;;8.43;2.35;;;16.20;66.10;;;;;;6251826;23;19999;-76
2021/08/22 23:01:04;;;;;;;5.00;2.38;;;16.20;65.90;;;;;;6250973;23;20004;-78
2021/08/22 23:03:29;;;;;;;6.13;2.22;;;16.10;65.90;;;;;;6251831;23;20079;-77
2021/08/22 23:05:57;;;;;;;8.60;2.22;;;16.10;65.90;;;;;;6251765;23;20043;-78
2021/08/22 23:08:29;;;;;;;4.80;1.90;;;16.10;66.00;;;;;;6251465;23;20005;-75
2021/08/22 23:10:55;;;;;;;5.93;2.08;;;16.00;65.90;;;;;;6251773;23;20004;-76
2021/08/22 23:13:21;;;;;;;5.18;2.17;;;16.00;66.10;;;;;;6251439;23;20000;-76
2021/08/22 23:15:47;;;;;;;4.10;1.85;;;15.90;66.00;;;;;;6224633;23;20035;-75
2021/08/22 23:18:14;;;;;;;4.75;1.90;;;15.90;65.90;;;;;;6251455;23;20064;-75
2021/08/22 23:20:40;;;;;;;7.18;2.20;;;15.90;66.10;;;;;;6251680;23;20000;-74
2021/08/22 23:23:06;;;;;;;6.43;2.08;;;15.90;66.10;;;;;;6251290;23;20015;-74
2021/08/22 23:25:31;;;;;;;4.70;1.88;;;15.80;66.10;;;;;;6250711;23;20027;-77
2021/08/22 23:27:57;;;;;;;5.45;2.17;;;15.80;66.00;;;;;;6251179;23;20000;-77
2021/08/22 23:30:23;;;;;;;4.35;1.80;;;15.80;66.20;;;;;;6251551;23;20378;-77
2021/08/22 23:32:49;;;;;;;5.53;2.22;;;15.70;66.10;;;;;;6251504;23;20027;-77
2021/08/22 23:35:15;;;;;;;5.93;2.20;;;15.70;66.10;;;;;;6251458;23;20004;-77
2021/08/22 23:37:40;;;;;;;7.88;2.38;;;15.70;66.30;;;;;;6251082;23;20019;-76
2021/08/22 23:40:07;;;;;;;6.03;2.40;;;15.70;66.50;;;;;;6251057;23;20012;-77
2021/08/22 23:42:33;;;;;;;7.75;2.17;;;15.70;66.30;;;;;;6251390;23;20343;-77
2021/08/22 23:44:59;;;;;;;6.05;2.53;;;15.60;66.10;;;;;;6251364;23;20004;-77
2021/08/22 23:47:24;;;;;;;5.28;2.50;;;15.60;66.20;;;;;;6251318;23;19996;-77
2021/08/22 23:49:50;;;;;;;6.65;3.20;;;15.60;66.30;;;;;;6251116;23;20007;-76
2021/08/22 23:52:16;;;;;;;6.70;2.78;;;15.60;66.20;;;;;;6224437;23;20083;-77
2021/08/22 23:54:42;;;;;;;6.35;2.85;;;15.50;66.10;;;;;;6251255;23;20003;-77
2021/08/22 23:57:08;;;;;;;5.57;2.72;;;15.50;66.30;;;;;;6251231;23;20000;-75
2021/08/22 23:59:33;;;;;;;7.43;2.22;;;15.50;66.30;;;;;;6251257;23;20068;-76
